createdAt,value
2024-02-06T00:01:24.502Z,9.40
2024-02-06T00:03:54.833Z,9.50
2024-02-06T00:06:22.829Z,9.50
2024-02-06T00:08:50.304Z,9.50
2024-02-06T00:11:17.631Z,9.50
2024-02-06T00:13:44.965Z,9.50
2024-02-06T00:16:14.009Z,9.50
2024-02-06T00:18:42.410Z,9.50
2024-02-06T00:21:10.279Z,9.50
2024-02-06T00:23:37.910Z,9.50
2024-02-06T00:26:06.528Z,9.50
2024-02-06T00:28:34.690Z,9.50
2024-02-06T00:31:02.937Z,9.50
2024-02-06T00:33:31.210Z,9.50
2024-02-06T00:35:58.845Z,9.50
2024-02-06T00:38:26.264Z,9.50
2024-02-06T00:40:53.676Z,9.50
2024-02-06T00:43:23.646Z,9.50
2024-02-06T00:45:52.381Z,9.50
2024-02-06T00:48:20.054Z,9.50
2024-02-06T00:50:50.105Z,9.50
2024-02-06T00:53:18.081Z,9.50
2024-02-06T00:55:45.623Z,9.50
2024-02-06T00:58:13.126Z,9.50
2024-02-06T01:00:40.494Z,9.50
2024-02-06T01:03:07.913Z,9.50
2024-02-06T01:05:36.654Z,9.40
2024-02-06T01:08:04.450Z,9.40
2024-02-06T01:10:32.118Z,9.40
2024-02-06T01:12:59.421Z,9.40
2024-02-06T01:15:27.631Z,9.40
2024-02-06T01:17:55.458Z,9.30
2024-02-06T01:20:24.121Z,9.40
2024-02-06T01:22:51.677Z,9.40
2024-02-06T01:25:19.237Z,9.30
2024-02-06T01:27:47.474Z,9.30
2024-02-06T01:30:16.126Z,9.30
2024-02-06T01:32:43.426Z,9.30
2024-02-06T01:35:13.619Z,9.30
2024-02-06T01:37:41.113Z,9.30
2024-02-06T01:40:10.023Z,9.40
2024-02-06T01:42:37.528Z,9.30
2024-02-06T01:45:05.678Z,9.30
2024-02-06T01:47:33.491Z,9.30
2024-02-06T01:50:03.231Z,9.30
2024-02-06T01:52:30.960Z,9.30
2024-02-06T01:54:59.127Z,9.30
2024-02-06T01:57:27.603Z,9.30
2024-02-06T01:59:56.657Z,9.30
2024-02-06T02:02:24.138Z,9.30
2024-02-06T02:04:51.704Z,9.30
2024-02-06T02:07:20.083Z,9.30
2024-02-06T02:09:48.024Z,9.20
2024-02-06T02:12:15.762Z,9.20
2024-02-06T02:14:43.541Z,9.20
2024-02-06T02:17:11.171Z,9.20
2024-02-06T02:19:38.712Z,9.20
2024-02-06T02:22:06.838Z,9.20
2024-02-06T02:24:34.611Z,9.20
2024-02-06T02:27:02.510Z,9.20
2024-02-06T02:29:32.620Z,9.20
2024-02-06T02:32:00.743Z,9.20
2024-02-06T02:34:28.299Z,9.20
2024-02-06T02:36:56.992Z,9.20
2024-02-06T02:39:24.326Z,9.20
2024-02-06T02:41:51.604Z,9.20
2024-02-06T02:44:18.977Z,9.10
2024-02-06T02:46:46.633Z,9.20
2024-02-06T02:49:14.927Z,9.10
2024-02-06T02:51:42.510Z,9.10
2024-02-06T02:54:12.121Z,9.10
2024-02-06T02:56:40.944Z,9.10
2024-02-06T02:59:08.476Z,9.10
2024-02-06T03:01:36.017Z,9.10
2024-02-06T03:04:04.221Z,9.10
2024-02-06T03:06:31.698Z,9.20
2024-02-06T03:09:01.071Z,9.20
2024-02-06T03:11:30.724Z,9.20
2024-02-06T03:13:58.255Z,9.20
2024-02-06T03:16:26.948Z,9.10
2024-02-06T03:18:54.471Z,9.10
2024-02-06T03:21:21.918Z,9.10
2024-02-06T03:23:49.206Z,9.10
2024-02-06T03:26:16.649Z,9.10
2024-02-06T03:28:43.970Z,9.10
2024-02-06T03:31:12.279Z,9.10
2024-02-06T03:33:39.852Z,9.00
2024-02-06T03:36:07.694Z,9.00
2024-02-06T03:38:35.663Z,9.00
2024-02-06T03:41:02.965Z,9.00
2024-02-06T03:43:30.597Z,9.00
2024-02-06T03:46:00.557Z,9.00
2024-02-06T03:48:28.029Z,9.00
2024-02-06T03:50:55.396Z,9.00
2024-02-06T03:53:22.690Z,9.00
2024-02-06T03:55:50.483Z,9.00
2024-02-06T03:58:19.092Z,9.00
2024-02-06T04:00:51.250Z,9.00
2024-02-06T04:03:19.183Z,9.00
2024-02-06T04:05:46.977Z,9.00
2024-02-06T04:08:15.170Z,9.00
2024-02-06T04:10:43.909Z,9.00
2024-02-06T04:13:11.718Z,9.00
2024-02-06T04:15:40.266Z,9.00
2024-02-06T04:18:07.995Z,9.00
2024-02-06T04:20:36.476Z,9.00
2024-02-06T04:23:05.236Z,9.00
2024-02-06T04:25:32.992Z,9.00
2024-02-06T04:28:00.642Z,9.00
2024-02-06T04:30:28.128Z,9.00
2024-02-06T04:32:56.653Z,9.00
2024-02-06T04:35:24.443Z,9.00
2024-02-06T04:37:53.087Z,9.00
2024-02-06T04:40:23.694Z,9.00
2024-02-06T04:42:52.413Z,9.00
2024-02-06T04:45:19.941Z,9.00
2024-02-06T04:47:49.058Z,9.00
2024-02-06T04:50:20.008Z,9.00
2024-02-06T04:52:47.394Z,9.00
2024-02-06T04:55:14.791Z,9.00
2024-02-06T04:57:42.458Z,9.00
2024-02-06T05:00:13.978Z,9.00
2024-02-06T05:02:41.675Z,9.00
2024-02-06T05:05:09.118Z,8.90
2024-02-06T05:07:36.652Z,8.90
2024-02-06T05:10:04.556Z,8.90
2024-02-06T05:12:32.330Z,8.90
2024-02-06T05:14:59.713Z,8.90
2024-02-06T05:17:28.462Z,8.90
2024-02-06T05:19:56.412Z,8.90
2024-02-06T05:22:24.842Z,8.90
2024-02-06T05:24:52.211Z,8.90
2024-02-06T05:27:20.195Z,8.90
2024-02-06T05:29:48.623Z,8.90
2024-02-06T05:32:17.574Z,8.90
2024-02-06T05:34:46.269Z,8.90
2024-02-06T05:37:13.894Z,8.90
2024-02-06T05:39:41.850Z,8.90
2024-02-06T05:42:09.723Z,8.90
2024-02-06T05:44:37.296Z,8.90
2024-02-06T05:47:05.028Z,8.90
2024-02-06T05:49:34.206Z,9.00
2024-02-06T05:52:01.759Z,9.00
2024-02-06T05:54:29.803Z,8.90
2024-02-06T05:56:57.986Z,8.90
2024-02-06T05:59:26.176Z,8.90
2024-02-06T06:01:55.533Z,8.90
2024-02-06T06:04:24.049Z,8.90
2024-02-06T06:06:52.848Z,8.90
2024-02-06T06:09:21.630Z,8.90
2024-02-06T06:11:49.352Z,8.90
2024-02-06T06:14:17.590Z,8.90
2024-02-06T06:16:45.261Z,8.80
2024-02-06T06:19:14.197Z,8.80
2024-02-06T06:21:44.327Z,8.80
2024-02-06T06:24:14.053Z,8.80
2024-02-06T06:26:42.227Z,8.80
2024-02-06T06:29:09.957Z,8.90
2024-02-06T06:31:37.757Z,8.80
2024-02-06T06:34:06.120Z,8.90
2024-02-06T06:36:33.609Z,8.90
2024-02-06T06:39:01.241Z,8.90
2024-02-06T06:41:28.740Z,8.90
2024-02-06T06:43:56.445Z,8.90
2024-02-06T06:46:24.059Z,8.90
2024-02-06T06:48:52.313Z,8.80
2024-02-06T06:51:19.905Z,8.80
2024-02-06T06:53:47.405Z,8.80
2024-02-06T06:56:19.206Z,8.90
2024-02-06T06:58:47.801Z,8.90
2024-02-06T07:01:15.424Z,8.90
2024-02-06T07:03:43.092Z,8.90
2024-02-06T07:06:10.866Z,8.90
2024-02-06T07:08:39.753Z,8.90
2024-02-06T07:11:08.393Z,8.90
2024-02-06T07:13:36.682Z,8.90
2024-02-06T07:16:07.741Z,8.90
2024-02-06T07:18:36.895Z,8.90
2024-02-06T07:21:05.538Z,9.00
2024-02-06T07:23:34.796Z,9.00
2024-02-06T07:26:08.282Z,9.00
2024-02-06T07:28:35.724Z,9.00
2024-02-06T07:31:03.520Z,9.00
2024-02-06T07:33:32.370Z,9.00
2024-02-06T07:36:00.616Z,9.00
2024-02-06T07:38:30.438Z,9.00
2024-02-06T07:41:00.053Z,9.00
2024-02-06T07:43:30.093Z,9.00
2024-02-06T07:45:57.645Z,9.10
2024-02-06T07:48:28.354Z,9.10
2024-02-06T07:50:55.776Z,9.10
2024-02-06T07:53:23.402Z,9.10
2024-02-06T07:55:50.841Z,9.20
2024-02-06T07:58:19.760Z,9.20
2024-02-06T08:00:47.508Z,9.20
2024-02-06T08:03:16.184Z,9.20
2024-02-06T08:05:44.904Z,9.20
2024-02-06T08:08:13.592Z,9.20
2024-02-06T08:10:43.116Z,9.20
2024-02-06T08:13:10.805Z,9.20
2024-02-06T08:15:39.522Z,9.20
2024-02-06T08:18:07.227Z,9.20
2024-02-06T08:20:35.344Z,9.30
2024-02-06T08:23:02.969Z,9.20
2024-02-06T08:25:33.811Z,9.20
2024-02-06T08:28:06.936Z,9.20
2024-02-06T08:30:35.662Z,9.30
2024-02-06T08:33:03.395Z,9.30
2024-02-06T08:35:30.992Z,9.30
2024-02-06T08:37:58.622Z,9.30
2024-02-06T08:40:27.511Z,9.30
2024-02-06T08:42:55.258Z,9.30
2024-02-06T08:45:23.863Z,9.30
2024-02-06T08:47:51.464Z,9.40
2024-02-06T08:50:19.014Z,9.40
2024-02-06T08:52:46.523Z,9.40
2024-02-06T08:55:15.620Z,9.40
2024-02-06T08:57:44.082Z,9.30
2024-02-06T09:00:13.215Z,9.40
2024-02-06T09:02:40.926Z,9.40
2024-02-06T09:05:11.045Z,9.40
2024-02-06T09:07:38.697Z,9.40
2024-02-06T09:10:07.752Z,9.50
2024-02-06T09:12:36.746Z,9.50
2024-02-06T09:15:04.542Z,9.50
2024-02-06T09:17:33.181Z,9.50
2024-02-06T09:20:00.894Z,9.60
2024-02-06T09:22:29.691Z,9.60
2024-02-06T09:24:59.473Z,9.60
2024-02-06T09:27:27.334Z,9.60
2024-02-06T09:29:56.713Z,9.60
2024-02-06T09:32:26.135Z,9.70
2024-02-06T09:35:00.629Z,9.70
2024-02-06T09:37:29.770Z,9.70
2024-02-06T09:39:57.490Z,9.70
2024-02-06T09:42:26.979Z,9.70
2024-02-06T09:44:56.155Z,9.80
2024-02-06T09:47:25.443Z,9.70
2024-02-06T09:49:53.545Z,9.80
2024-02-06T09:52:24.707Z,9.80
2024-02-06T09:54:53.569Z,9.80
2024-02-06T09:57:23.468Z,9.80
2024-02-06T09:59:54.998Z,9.90
2024-02-06T10:02:25.699Z,9.90
2024-02-06T10:04:55.191Z,9.90
2024-02-06T10:07:25.094Z,10.00
2024-02-06T10:09:54.255Z,9.90
2024-02-06T10:12:22.130Z,10.00
2024-02-06T10:14:49.592Z,9.90
2024-02-06T10:17:19.354Z,9.90
2024-02-06T10:19:48.092Z,9.90
2024-02-06T10:22:15.664Z,9.90
2024-02-06T10:24:43.257Z,9.90
2024-02-06T10:27:11.848Z,9.90
2024-02-06T10:29:40.089Z,10.00
2024-02-06T10:32:17.120Z,10.00
2024-02-06T10:34:44.825Z,10.00
2024-02-06T10:37:16.256Z,10.00
2024-02-06T10:39:44.128Z,10.00
2024-02-06T10:42:52.392Z,10.10
2024-02-06T10:45:03.826Z,10.10
2024-02-06T10:47:33.194Z,10.10
2024-02-06T10:50:06.170Z,10.10
2024-02-06T10:52:34.399Z,10.10
2024-02-06T10:55:02.107Z,10.10
2024-02-06T10:57:34.565Z,10.20
2024-02-06T11:00:09.417Z,10.20
2024-02-06T11:02:37.898Z,10.20
2024-02-06T11:05:06.563Z,10.20
2024-02-06T11:07:56.655Z,10.20
2024-02-06T11:10:48.092Z,10.30
2024-02-06T11:13:29.490Z,10.30
2024-02-06T11:16:04.018Z,10.30
2024-02-06T11:18:45.585Z,10.30
2024-02-06T11:21:15.633Z,10.30
2024-02-06T11:23:45.794Z,10.30
2024-02-06T11:26:14.334Z,10.40
2024-02-06T11:28:43.495Z,10.40
2024-02-06T11:31:13.084Z,10.30
2024-02-06T11:33:43.321Z,10.30
2024-02-06T11:36:12.401Z,10.30
2024-02-06T11:38:40.230Z,10.30
2024-02-06T11:41:15.569Z,10.20
2024-02-06T11:43:45.249Z,10.20
2024-02-06T11:46:13.631Z,10.20
2024-02-06T11:48:44.722Z,10.20
2024-02-06T11:51:12.510Z,10.20
2024-02-06T11:53:40.462Z,10.20
2024-02-06T11:56:09.613Z,10.20
2024-02-06T11:58:37.816Z,10.20
2024-02-06T12:01:08.120Z,10.30
2024-02-06T12:03:36.102Z,10.30
2024-02-06T12:06:08.132Z,10.30
2024-02-06T12:08:36.575Z,10.30
2024-02-06T12:11:06.061Z,10.30
2024-02-06T12:13:35.678Z,10.30
2024-02-06T12:16:05.787Z,10.30
2024-02-06T12:18:33.764Z,10.30
2024-02-06T12:21:03.684Z,10.30
2024-02-06T12:23:31.572Z,10.30
2024-02-06T12:26:00.670Z,10.30
2024-02-06T12:28:31.180Z,10.30
2024-02-06T12:31:01.812Z,10.30
2024-02-06T12:33:36.609Z,10.40
2024-02-06T12:36:05.427Z,10.40
2024-02-06T12:38:34.340Z,10.40
2024-02-06T12:41:04.181Z,10.30
2024-02-06T12:43:31.814Z,10.30
2024-02-06T12:46:00.380Z,10.30
2024-02-06T12:48:28.525Z,10.30
2024-02-06T12:50:56.720Z,10.30
2024-02-06T12:53:26.312Z,10.40
2024-02-06T12:55:54.058Z,10.40
2024-02-06T12:58:23.163Z,10.40
2024-02-06T13:00:59.164Z,10.40
2024-02-06T13:03:28.889Z,10.40
2024-02-06T13:05:57.645Z,10.40
2024-02-06T13:08:27.735Z,10.40
2024-02-06T13:10:59.691Z,10.40
2024-02-06T13:13:27.870Z,10.40
2024-02-06T13:15:58.962Z,10.40
2024-02-06T13:18:28.424Z,10.40
2024-02-06T13:20:59.237Z,10.40
2024-02-06T13:23:26.812Z,10.50
2024-02-06T13:25:54.415Z,10.50
2024-02-06T13:28:22.030Z,10.50
2024-02-06T13:30:52.968Z,10.60
2024-02-06T13:33:20.823Z,10.60
2024-02-06T13:35:49.879Z,10.60
2024-02-06T13:38:17.445Z,10.70
2024-02-06T13:40:44.926Z,10.60
2024-02-06T13:43:13.558Z,10.60
2024-02-06T13:45:41.126Z,10.60
2024-02-06T13:48:09.960Z,10.70
2024-02-06T13:50:38.314Z,10.70
2024-02-06T13:53:06.506Z,10.80
2024-02-06T13:55:34.236Z,10.80
2024-02-06T13:58:04.458Z,10.80
2024-02-06T14:00:32.278Z,10.90
2024-02-06T14:02:59.987Z,10.90
2024-02-06T14:05:29.445Z,10.90
2024-02-06T14:07:59.063Z,10.90
2024-02-06T14:10:27.415Z,10.90
2024-02-06T14:12:55.302Z,10.80
2024-02-06T14:15:23.116Z,10.80
2024-02-06T14:17:50.855Z,10.80
2024-02-06T14:20:18.790Z,10.90
2024-02-06T14:22:47.706Z,10.90
2024-02-06T14:25:18.004Z,11.00
2024-02-06T14:27:45.972Z,10.90
2024-02-06T14:30:13.491Z,10.90
2024-02-06T14:32:42.804Z,11.00
2024-02-06T14:35:11.905Z,11.00
2024-02-06T14:37:39.494Z,11.00
2024-02-06T14:40:07.886Z,11.10
2024-02-06T14:42:36.517Z,11.10
2024-02-06T14:45:05.308Z,11.10
2024-02-06T14:47:34.280Z,11.10
2024-02-06T14:50:01.964Z,11.10
2024-02-06T14:52:30.654Z,11.00
2024-02-06T14:54:58.424Z,11.00
2024-02-06T14:57:28.421Z,11.00
2024-02-06T14:59:56.036Z,11.00
2024-02-06T15:02:25.172Z,11.00
2024-02-06T15:04:52.812Z,11.00
2024-02-06T15:07:20.783Z,11.00
2024-02-06T15:09:48.273Z,11.00
2024-02-06T15:12:15.928Z,11.00
2024-02-06T15:14:44.575Z,11.00
2024-02-06T15:17:13.474Z,11.00
2024-02-06T15:19:45.781Z,11.00
2024-02-06T15:22:14.753Z,11.00
2024-02-06T15:24:42.273Z,11.00
2024-02-06T15:27:11.250Z,11.00
2024-02-06T15:29:39.305Z,11.00
2024-02-06T15:32:08.336Z,11.00
2024-02-06T15:34:37.163Z,11.00
2024-02-06T15:37:05.772Z,11.00
2024-02-06T15:39:35.583Z,11.00
2024-02-06T15:42:03.261Z,11.00
2024-02-06T15:44:30.922Z,11.00
2024-02-06T15:46:58.380Z,11.00
2024-02-06T15:49:27.909Z,11.10
2024-02-06T15:51:55.488Z,11.00
2024-02-06T15:54:24.110Z,11.10
2024-02-06T15:56:51.837Z,11.10
2024-02-06T15:59:20.281Z,11.10
2024-02-06T16:01:48.797Z,11.10
2024-02-06T16:04:18.363Z,11.10
2024-02-06T16:06:46.795Z,11.10
2024-02-06T16:09:17.748Z,11.10
2024-02-06T16:11:53.042Z,11.10
2024-02-06T16:14:22.111Z,11.10
2024-02-06T16:16:52.845Z,11.10
2024-02-06T16:19:30.022Z,11.10
2024-02-06T16:22:02.422Z,11.10
2024-02-06T16:24:31.036Z,11.10
2024-02-06T16:27:00.409Z,11.10
2024-02-06T16:29:28.544Z,11.10
2024-02-06T16:31:57.574Z,11.10
2024-02-06T16:34:33.564Z,11.10
2024-02-06T16:37:06.891Z,11.10
2024-02-06T16:39:34.608Z,11.10
2024-02-06T16:42:02.265Z,11.10
2024-02-06T16:44:29.951Z,11.00
2024-02-06T16:46:58.681Z,11.00
2024-02-06T16:49:26.618Z,11.00
2024-02-06T16:51:54.225Z,11.00
2024-02-06T16:54:24.198Z,11.00
2024-02-06T16:56:52.442Z,11.00
2024-02-06T16:59:19.914Z,11.00
2024-02-06T17:01:48.824Z,11.00
2024-02-06T17:04:17.969Z,11.00
2024-02-06T17:06:45.982Z,10.90
2024-02-06T17:09:13.566Z,10.90
2024-02-06T17:11:45.137Z,10.90
2024-02-06T17:14:13.144Z,10.90
2024-02-06T17:16:47.409Z,10.90
2024-02-06T17:19:16.180Z,11.00
2024-02-06T17:21:47.118Z,11.00
2024-02-06T17:24:14.805Z,11.00
2024-02-06T17:26:43.127Z,11.00
2024-02-06T17:29:10.490Z,11.00
2024-02-06T17:31:39.442Z,11.00
2024-02-06T17:34:07.059Z,11.00
2024-02-06T17:36:40.413Z,11.00
2024-02-06T17:39:08.827Z,11.00
2024-02-06T17:41:36.782Z,11.00
2024-02-06T17:44:05.615Z,11.00
2024-02-06T17:46:33.746Z,11.00
2024-02-06T17:49:02.710Z,11.00
2024-02-06T17:51:30.653Z,11.00
2024-02-06T17:53:58.204Z,11.00
2024-02-06T17:56:25.983Z,11.00
2024-02-06T17:58:53.807Z,11.10
2024-02-06T18:01:25.274Z,11.10
2024-02-06T18:03:54.191Z,11.10
2024-02-06T18:06:21.660Z,11.10
2024-02-06T18:08:49.216Z,11.10
2024-02-06T18:11:17.869Z,11.10
2024-02-06T18:13:45.589Z,11.10
2024-02-06T18:16:13.499Z,11.10
2024-02-06T18:18:41.829Z,11.10
2024-02-06T18:21:09.341Z,11.10
2024-02-06T18:23:39.422Z,11.10
2024-02-06T18:26:09.299Z,11.10
2024-02-06T18:28:37.070Z,11.10
2024-02-06T18:31:05.495Z,11.00
2024-02-06T18:33:35.011Z,11.00
2024-02-06T18:36:02.738Z,11.00
2024-02-06T18:38:30.894Z,10.90
2024-02-06T18:40:58.389Z,10.90
2024-02-06T18:43:31.813Z,10.90
2024-02-06T18:45:59.461Z,10.80
2024-02-06T18:48:28.017Z,10.90
2024-02-06T18:50:56.554Z,10.80
2024-02-06T18:53:24.117Z,10.80
2024-02-06T18:55:51.912Z,10.70
2024-02-06T18:58:19.463Z,10.70
2024-02-06T19:00:47.726Z,10.70
2024-02-06T19:03:16.553Z,10.70
2024-02-06T19:05:44.360Z,10.60
2024-02-06T19:08:11.944Z,10.60
2024-02-06T19:10:40.718Z,10.60
2024-02-06T19:13:08.016Z,10.60
2024-02-06T19:15:35.737Z,10.60
2024-02-06T19:18:04.803Z,10.60
2024-02-06T19:20:32.350Z,10.50
2024-02-06T19:23:01.706Z,10.60
2024-02-06T19:25:30.716Z,10.60
2024-02-06T19:27:59.254Z,10.50
2024-02-06T19:30:28.038Z,10.50
2024-02-06T19:32:57.914Z,10.50
2024-02-06T19:35:26.659Z,10.50
2024-02-06T19:37:54.321Z,10.50
2024-02-06T19:40:23.062Z,10.50
2024-02-06T19:42:50.662Z,10.50
2024-02-06T19:45:20.328Z,10.50
2024-02-06T19:47:48.187Z,10.50
2024-02-06T19:50:15.902Z,10.40
2024-02-06T19:52:44.355Z,10.40
2024-02-06T19:55:13.119Z,10.40
2024-02-06T19:57:42.768Z,10.40
2024-02-06T20:00:11.541Z,10.40
2024-02-06T20:02:40.229Z,10.40
2024-02-06T20:05:08.129Z,10.40
2024-02-06T20:07:36.614Z,10.40
2024-02-06T20:10:04.408Z,10.40
2024-02-06T20:12:31.822Z,10.40
2024-02-06T20:14:59.287Z,10.40
2024-02-06T20:17:27.085Z,10.40
2024-02-06T20:19:57.313Z,10.40
2024-02-06T20:22:24.748Z,10.40
2024-02-06T20:24:52.466Z,10.40
2024-02-06T20:27:20.222Z,10.40
2024-02-06T20:29:49.676Z,10.40
2024-02-06T20:32:18.721Z,10.40
2024-02-06T20:34:47.291Z,10.40
2024-02-06T20:37:14.790Z,10.40
2024-02-06T20:39:49.451Z,10.40
2024-02-06T20:42:16.917Z,10.40
2024-02-06T20:44:44.722Z,10.40
2024-02-06T20:47:14.311Z,10.40
2024-02-06T20:49:44.734Z,10.40
2024-02-06T20:52:12.842Z,10.40
2024-02-06T20:54:41.676Z,10.40
2024-02-06T20:57:11.025Z,10.40
2024-02-06T20:59:38.849Z,10.40
2024-02-06T21:02:07.015Z,10.40
2024-02-06T21:04:35.911Z,10.50
2024-02-06T21:07:04.467Z,10.50
2024-02-06T21:09:31.959Z,10.50
2024-02-06T21:11:59.683Z,10.50
2024-02-06T21:14:27.317Z,10.50
2024-02-06T21:16:55.110Z,10.50
2024-02-06T21:19:24.008Z,10.60
2024-02-06T21:21:51.694Z,10.60
2024-02-06T21:24:19.865Z,10.60
2024-02-06T21:26:47.741Z,10.60
2024-02-06T21:29:18.660Z,10.60
2024-02-06T21:31:48.376Z,10.60
2024-02-06T21:34:16.209Z,10.60
2024-02-06T21:36:43.763Z,10.60
2024-02-06T21:39:18.189Z,10.60
2024-02-06T21:41:46.300Z,10.60
2024-02-06T21:44:14.214Z,10.70
2024-02-06T21:46:41.652Z,10.70
2024-02-06T21:49:09.363Z,10.70
2024-02-06T21:51:36.743Z,10.70
2024-02-06T21:54:04.314Z,10.70
2024-02-06T21:56:32.932Z,10.70
2024-02-06T21:59:02.356Z,10.70
2024-02-06T22:01:30.571Z,10.70
2024-02-06T22:03:59.568Z,10.70
2024-02-06T22:06:27.005Z,10.70
2024-02-06T22:08:54.563Z,10.70
2024-02-06T22:11:24.145Z,10.70
2024-02-06T22:13:51.954Z,10.70
2024-02-06T22:16:19.755Z,10.70
2024-02-06T22:18:47.228Z,10.70
2024-02-06T22:21:15.368Z,10.70
2024-02-06T22:23:42.959Z,10.70
2024-02-06T22:26:10.381Z,10.70
2024-02-06T22:28:38.428Z,10.60
2024-02-06T22:31:06.902Z,10.60
2024-02-06T22:33:36.984Z,10.60
2024-02-06T22:36:06.293Z,10.60
2024-02-06T22:38:33.893Z,10.60
2024-02-06T22:41:01.808Z,10.60
2024-02-06T22:43:30.486Z,10.60
2024-02-06T22:45:58.032Z,10.60
2024-02-06T22:48:25.310Z,10.60
2024-02-06T22:50:52.540Z,10.60
2024-02-06T22:53:20.249Z,10.60
2024-02-06T22:55:47.708Z,10.60
2024-02-06T22:58:16.203Z,10.60
2024-02-06T23:00:43.673Z,10.60
2024-02-06T23:03:11.420Z,10.60
2024-02-06T23:05:38.867Z,10.60
2024-02-06T23:08:07.779Z,10.60
2024-02-06T23:10:36.450Z,10.60
2024-02-06T23:13:04.281Z,10.70
2024-02-06T23:15:32.686Z,10.60
2024-02-06T23:18:00.313Z,10.60
2024-02-06T23:20:29.107Z,10.60
2024-02-06T23:22:57.502Z,10.60
2024-02-06T23:25:26.646Z,10.70
2024-02-06T23:27:54.196Z,10.70
2024-02-06T23:30:23.188Z,10.70
2024-02-06T23:32:51.773Z,10.70
2024-02-06T23:35:21.622Z,10.70
2024-02-06T23:37:49.195Z,10.60
2024-02-06T23:40:17.272Z,10.60
2024-02-06T23:42:44.634Z,10.60
2024-02-06T23:45:11.913Z,10.60
2024-02-06T23:47:39.472Z,10.70
2024-02-06T23:50:07.579Z,10.60
2024-02-06T23:52:36.105Z,10.70
2024-02-06T23:55:04.110Z,10.70
2024-02-06T23:57:31.611Z,10.70
2024-02-06T23:59:59.076Z,10.70
